sensor_id;sensor_type;location;lat;lon;timestamp;P1;durP1;ratioP1;P2;durP2;ratioP2
26516;SDS011;14190;51.342;6.338;2023-03-29T00:02:03;12.17;;;5.63;;
26516;SDS011;14190;51.342;6.338;2023-03-29T00:04:32;7.87;;;5.20;;
26516;SDS011;14190;51.342;6.338;2023-03-29T00:07:00;13.72;;;5.72;;
26516;SDS011;14190;51.342;6.338;2023-03-29T00:09:31;9.68;;;5.70;;
26516;SDS011;14190;51.342;6.338;2023-03-29T00:11:59;6.97;;;5.53;;
26516;SDS011;14190;51.342;6.338;2023-03-29T00:14:27;10.13;;;5.17;;
26516;SDS011;14190;51.342;6.338;2023-03-29T00:16:56;10.30;;;5.03;;
26516;SDS011;14190;51.342;6.338;2023-03-29T00:19:23;8.78;;;5.22;;
26516;SDS011;14190;51.342;6.338;2023-03-29T00:21:51;10.98;;;5.17;;
26516;SDS011;14190;51.342;6.338;2023-03-29T00:24:18;13.30;;;5.35;;
26516;SDS011;14190;51.342;6.338;2023-03-29T00:26:49;13.38;;;4.78;;
26516;SDS011;14190;51.342;6.338;2023-03-29T00:29:16;10.55;;;4.83;;
26516;SDS011;14190;51.342;6.338;2023-03-29T00:31:44;9.08;;;5.03;;
26516;SDS011;14190;51.342;6.338;2023-03-29T00:34:13;8.43;;;4.80;;
26516;SDS011;14190;51.342;6.338;2023-03-29T00:36:40;10.00;;;4.85;;
26516;SDS011;14190;51.342;6.338;2023-03-29T00:39:09;7.25;;;4.67;;
26516;SDS011;14190;51.342;6.338;2023-03-29T00:41:36;8.15;;;5.45;;
26516;SDS011;14190;51.342;6.338;2023-03-29T00:44:04;8.45;;;4.85;;
26516;SDS011;14190;51.342;6.338;2023-03-29T00:46:31;9.40;;;4.87;;
26516;SDS011;14190;51.342;6.338;2023-03-29T00:49:09;9.75;;;5.37;;
26516;SDS011;14190;51.342;6.338;2023-03-29T00:51:31;11.70;;;5.25;;
26516;SDS011;14190;51.342;6.338;2023-03-29T00:54:00;9.95;;;4.78;;
26516;SDS011;14190;51.342;6.338;2023-03-29T00:56:29;10.13;;;5.33;;
26516;SDS011;14190;51.342;6.338;2023-03-29T00:59:01;8.15;;;5.40;;
26516;SDS011;14190;51.342;6.338;2023-03-29T01:04:00;9.18;;;4.87;;
26516;SDS011;14190;51.342;6.338;2023-03-29T01:06:28;10.68;;;5.70;;
26516;SDS011;14190;51.342;6.338;2023-03-29T01:11:28;7.35;;;4.78;;
26516;SDS011;14190;51.342;6.338;2023-03-29T01:13:57;11.68;;;5.30;;
26516;SDS011;14190;51.342;6.338;2023-03-29T01:16:25;12.37;;;6.00;;
26516;SDS011;14190;51.342;6.338;2023-03-29T01:18:54;8.75;;;5.65;;
26516;SDS011;14190;51.342;6.338;2023-03-29T01:21:24;8.03;;;5.00;;
26516;SDS011;14190;51.342;6.338;2023-03-29T01:23:58;11.60;;;5.72;;
26516;SDS011;14190;51.342;6.338;2023-03-29T01:29:23;9.95;;;5.58;;
26516;SDS011;14190;51.342;6.338;2023-03-29T01:32:26;11.57;;;5.53;;
26516;SDS011;14190;51.342;6.338;2023-03-29T01:35:13;15.80;;;6.08;;
26516;SDS011;14190;51.342;6.338;2023-03-29T01:37:19;7.53;;;4.40;;
26516;SDS011;14190;51.342;6.338;2023-03-29T01:39:25;12.75;;;5.45;;
26516;SDS011;14190;51.342;6.338;2023-03-29T01:44:41;12.90;;;5.25;;
26516;SDS011;14190;51.342;6.338;2023-03-29T01:47:09;8.60;;;5.90;;
26516;SDS011;14190;51.342;6.338;2023-03-29T01:49:37;5.83;;;4.70;;
26516;SDS011;14190;51.342;6.338;2023-03-29T01:52:11;6.62;;;4.42;;
26516;SDS011;14190;51.342;6.338;2023-03-29T01:54:40;7.00;;;4.67;;
26516;SDS011;14190;51.342;6.338;2023-03-29T01:57:08;10.68;;;4.87;;
26516;SDS011;14190;51.342;6.338;2023-03-29T01:59:37;13.30;;;5.65;;
26516;SDS011;14190;51.342;6.338;2023-03-29T02:02:07;8.77;;;6.23;;
26516;SDS011;14190;51.342;6.338;2023-03-29T02:04:37;9.20;;;5.35;;
26516;SDS011;14190;51.342;6.338;2023-03-29T02:07:06;9.98;;;5.60;;
26516;SDS011;14190;51.342;6.338;2023-03-29T02:09:35;6.30;;;4.47;;
26516;SDS011;14190;51.342;6.338;2023-03-29T02:12:03;10.55;;;6.17;;
26516;SDS011;14190;51.342;6.338;2023-03-29T02:14:32;8.88;;;5.62;;
26516;SDS011;14190;51.342;6.338;2023-03-29T02:17:13;12.88;;;8.55;;
26516;SDS011;14190;51.342;6.338;2023-03-29T02:19:42;11.93;;;6.35;;
26516;SDS011;14190;51.342;6.338;2023-03-29T02:22:11;12.00;;;6.53;;
26516;SDS011;14190;51.342;6.338;2023-03-29T02:24:40;13.28;;;6.00;;
26516;SDS011;14190;51.342;6.338;2023-03-29T02:27:08;7.17;;;4.95;;
26516;SDS011;14190;51.342;6.338;2023-03-29T02:29:36;10.25;;;5.47;;
26516;SDS011;14190;51.342;6.338;2023-03-29T02:32:04;9.58;;;6.40;;
26516;SDS011;14190;51.342;6.338;2023-03-29T02:34:37;9.63;;;5.47;;
26516;SDS011;14190;51.342;6.338;2023-03-29T02:37:08;11.30;;;6.37;;
26516;SDS011;14190;51.342;6.338;2023-03-29T02:39:37;11.55;;;5.78;;
26516;SDS011;14190;51.342;6.338;2023-03-29T02:42:05;9.33;;;5.03;;
26516;SDS011;14190;51.342;6.338;2023-03-29T02:44:34;6.60;;;4.33;;
26516;SDS011;14190;51.342;6.338;2023-03-29T02:47:04;12.82;;;5.53;;
26516;SDS011;14190;51.342;6.338;2023-03-29T02:49:32;10.63;;;6.45;;
26516;SDS011;14190;51.342;6.338;2023-03-29T02:52:00;8.75;;;5.53;;
26516;SDS011;14190;51.342;6.338;2023-03-29T02:54:28;8.20;;;4.85;;
26516;SDS011;14190;51.342;6.338;2023-03-29T02:56:57;10.98;;;4.67;;
26516;SDS011;14190;51.342;6.338;2023-03-29T02:59:25;9.25;;;5.67;;
26516;SDS011;14190;51.342;6.338;2023-03-29T03:01:54;9.00;;;6.58;;
26516;SDS011;14190;51.342;6.338;2023-03-29T03:04:22;12.18;;;6.35;;
26516;SDS011;14190;51.342;6.338;2023-03-29T03:06:50;10.78;;;5.10;;
26516;SDS011;14190;51.342;6.338;2023-03-29T03:09:18;9.03;;;4.80;;
26516;SDS011;14190;51.342;6.338;2023-03-29T03:11:46;12.30;;;5.10;;
26516;SDS011;14190;51.342;6.338;2023-03-29T03:14:13;8.23;;;5.05;;
26516;SDS011;14190;51.342;6.338;2023-03-29T03:16:42;6.47;;;4.58;;
26516;SDS011;14190;51.342;6.338;2023-03-29T03:19:09;8.53;;;4.47;;
26516;SDS011;14190;51.342;6.338;2023-03-29T03:21:36;8.25;;;5.10;;
26516;SDS011;14190;51.342;6.338;2023-03-29T03:24:04;7.95;;;4.47;;
26516;SDS011;14190;51.342;6.338;2023-03-29T03:26:33;12.00;;;4.42;;
26516;SDS011;14190;51.342;6.338;2023-03-29T03:29:01;8.50;;;4.03;;
26516;SDS011;14190;51.342;6.338;2023-03-29T03:31:42;9.18;;;4.22;;
26516;SDS011;14190;51.342;6.338;2023-03-29T03:34:11;10.58;;;4.95;;
26516;SDS011;14190;51.342;6.338;2023-03-29T03:36:50;9.85;;;4.60;;
26516;SDS011;14190;51.342;6.338;2023-03-29T03:39:17;8.88;;;4.97;;
26516;SDS011;14190;51.342;6.338;2023-03-29T03:41:44;9.40;;;4.85;;
26516;SDS011;14190;51.342;6.338;2023-03-29T03:44:12;6.67;;;4.80;;
26516;SDS011;14190;51.342;6.338;2023-03-29T03:46:41;11.30;;;5.97;;
26516;SDS011;14190;51.342;6.338;2023-03-29T03:49:09;9.50;;;6.12;;
26516;SDS011;14190;51.342;6.338;2023-03-29T03:51:38;10.08;;;6.28;;
26516;SDS011;14190;51.342;6.338;2023-03-29T03:54:07;11.73;;;7.12;;
26516;SDS011;14190;51.342;6.338;2023-03-29T03:56:36;15.88;;;6.35;;
26516;SDS011;14190;51.342;6.338;2023-03-29T03:59:06;9.35;;;6.03;;
26516;SDS011;14190;51.342;6.338;2023-03-29T04:01:53;10.55;;;5.60;;
26516;SDS011;14190;51.342;6.338;2023-03-29T04:04:21;12.98;;;5.60;;
26516;SDS011;14190;51.342;6.338;2023-03-29T04:06:50;11.93;;;6.43;;
26516;SDS011;14190;51.342;6.338;2023-03-29T04:09:28;8.60;;;5.50;;
26516;SDS011;14190;51.342;6.338;2023-03-29T04:11:58;11.48;;;5.92;;
26516;SDS011;14190;51.342;6.338;2023-03-29T04:14:27;12.85;;;5.80;;
26516;SDS011;14190;51.342;6.338;2023-03-29T04:17:00;14.03;;;5.80;;
26516;SDS011;14190;51.342;6.338;2023-03-29T04:19:32;22.17;;;6.17;;
26516;SDS011;14190;51.342;6.338;2023-03-29T04:22:00;10.50;;;5.90;;
26516;SDS011;14190;51.342;6.338;2023-03-29T04:24:27;8.88;;;5.40;;
26516;SDS011;14190;51.342;6.338;2023-03-29T04:27:13;12.60;;;5.97;;
26516;SDS011;14190;51.342;6.338;2023-03-29T04:29:41;15.08;;;5.75;;
26516;SDS011;14190;51.342;6.338;2023-03-29T04:32:12;12.33;;;5.85;;
26516;SDS011;14190;51.342;6.338;2023-03-29T04:34:44;11.00;;;6.67;;
26516;SDS011;14190;51.342;6.338;2023-03-29T04:37:12;11.68;;;5.58;;
26516;SDS011;14190;51.342;6.338;2023-03-29T04:39:39;10.88;;;5.55;;
26516;SDS011;14190;51.342;6.338;2023-03-29T04:42:07;12.07;;;5.78;;
26516;SDS011;14190;51.342;6.338;2023-03-29T04:44:37;11.00;;;6.00;;
26516;SDS011;14190;51.342;6.338;2023-03-29T04:47:06;13.85;;;6.53;;
26516;SDS011;14190;51.342;6.338;2023-03-29T04:49:44;12.73;;;5.80;;
26516;SDS011;14190;51.342;6.338;2023-03-29T04:52:13;17.02;;;7.20;;
26516;SDS011;14190;51.342;6.338;2023-03-29T04:54:42;11.95;;;6.30;;
26516;SDS011;14190;51.342;6.338;2023-03-29T04:57:14;10.00;;;6.65;;
26516;SDS011;14190;51.342;6.338;2023-03-29T04:59:44;16.57;;;8.23;;
26516;SDS011;14190;51.342;6.338;2023-03-29T05:02:13;12.70;;;8.13;;
26516;SDS011;14190;51.342;6.338;2023-03-29T05:04:42;11.95;;;7.15;;
26516;SDS011;14190;51.342;6.338;2023-03-29T05:07:11;16.70;;;8.65;;
26516;SDS011;14190;51.342;6.338;2023-03-29T05:09:40;19.12;;;7.70;;
26516;SDS011;14190;51.342;6.338;2023-03-29T05:12:08;16.23;;;8.25;;
26516;SDS011;14190;51.342;6.338;2023-03-29T05:14:37;11.40;;;8.13;;
26516;SDS011;14190;51.342;6.338;2023-03-29T05:17:04;12.82;;;7.42;;
26516;SDS011;14190;51.342;6.338;2023-03-29T05:19:32;16.57;;;7.12;;
26516;SDS011;14190;51.342;6.338;2023-03-29T05:22:01;9.13;;;5.90;;
26516;SDS011;14190;51.342;6.338;2023-03-29T05:24:30;16.77;;;7.75;;
26516;SDS011;14190;51.342;6.338;2023-03-29T05:26:59;14.23;;;6.92;;
26516;SDS011;14190;51.342;6.338;2023-03-29T05:29:29;10.08;;;5.72;;
26516;SDS011;14190;51.342;6.338;2023-03-29T05:31:59;15.83;;;6.35;;
26516;SDS011;14190;51.342;6.338;2023-03-29T05:34:27;14.75;;;5.65;;
26516;SDS011;14190;51.342;6.338;2023-03-29T05:36:56;13.03;;;5.47;;
26516;SDS011;14190;51.342;6.338;2023-03-29T05:39:24;13.10;;;6.05;;
26516;SDS011;14190;51.342;6.338;2023-03-29T05:41:52;12.78;;;5.95;;
26516;SDS011;14190;51.342;6.338;2023-03-29T05:44:27;13.60;;;6.03;;
26516;SDS011;14190;51.342;6.338;2023-03-29T05:46:56;13.45;;;5.83;;
26516;SDS011;14190;51.342;6.338;2023-03-29T05:49:24;9.13;;;6.12;;
26516;SDS011;14190;51.342;6.338;2023-03-29T05:51:54;15.78;;;7.55;;
26516;SDS011;14190;51.342;6.338;2023-03-29T05:54:24;14.07;;;8.75;;
26516;SDS011;14190;51.342;6.338;2023-03-29T05:56:52;11.22;;;6.20;;
26516;SDS011;14190;51.342;6.338;2023-03-29T05:59:20;14.03;;;6.53;;
26516;SDS011;14190;51.342;6.338;2023-03-29T06:01:49;10.38;;;6.17;;
26516;SDS011;14190;51.342;6.338;2023-03-29T06:04:18;10.33;;;6.13;;
26516;SDS011;14190;51.342;6.338;2023-03-29T06:06:50;9.60;;;6.35;;
26516;SDS011;14190;51.342;6.338;2023-03-29T06:09:21;10.38;;;5.65;;
26516;SDS011;14190;51.342;6.338;2023-03-29T06:11:56;13.80;;;6.08;;
26516;SDS011;14190;51.342;6.338;2023-03-29T06:14:39;8.93;;;5.75;;
26516;SDS011;14190;51.342;6.338;2023-03-29T06:17:08;7.03;;;5.23;;
26516;SDS011;14190;51.342;6.338;2023-03-29T06:19:36;10.48;;;6.67;;
26516;SDS011;14190;51.342;6.338;2023-03-29T06:22:05;11.43;;;6.03;;
26516;SDS011;14190;51.342;6.338;2023-03-29T06:24:33;13.83;;;6.05;;
26516;SDS011;14190;51.342;6.338;2023-03-29T06:27:02;12.35;;;6.05;;
26516;SDS011;14190;51.342;6.338;2023-03-29T06:29:29;15.63;;;6.15;;
26516;SDS011;14190;51.342;6.338;2023-03-29T06:31:57;18.27;;;9.35;;
26516;SDS011;14190;51.342;6.338;2023-03-29T06:34:28;23.87;;;12.58;;
26516;SDS011;14190;51.342;6.338;2023-03-29T06:37:03;13.95;;;8.73;;
26516;SDS011;14190;51.342;6.338;2023-03-29T06:39:35;14.28;;;9.28;;
26516;SDS011;14190;51.342;6.338;2023-03-29T06:42:21;18.15;;;9.73;;
26516;SDS011;14190;51.342;6.338;2023-03-29T06:44:50;15.15;;;7.95;;
26516;SDS011;14190;51.342;6.338;2023-03-29T06:47:18;15.38;;;8.10;;
26516;SDS011;14190;51.342;6.338;2023-03-29T06:49:46;13.30;;;6.37;;
26516;SDS011;14190;51.342;6.338;2023-03-29T06:52:27;16.67;;;8.28;;
26516;SDS011;14190;51.342;6.338;2023-03-29T06:54:55;11.45;;;7.03;;
26516;SDS011;14190;51.342;6.338;2023-03-29T06:57:23;13.18;;;7.03;;
26516;SDS011;14190;51.342;6.338;2023-03-29T06:59:51;13.05;;;6.03;;
26516;SDS011;14190;51.342;6.338;2023-03-29T07:02:23;13.32;;;6.28;;
26516;SDS011;14190;51.342;6.338;2023-03-29T07:04:52;14.38;;;6.85;;
26516;SDS011;14190;51.342;6.338;2023-03-29T07:07:25;14.80;;;7.00;;
26516;SDS011;14190;51.342;6.338;2023-03-29T07:09:55;11.45;;;6.30;;
26516;SDS011;14190;51.342;6.338;2023-03-29T07:12:27;12.43;;;7.87;;
26516;SDS011;14190;51.342;6.338;2023-03-29T07:14:56;12.50;;;7.28;;
26516;SDS011;14190;51.342;6.338;2023-03-29T07:17:25;27.05;;;12.53;;
26516;SDS011;14190;51.342;6.338;2023-03-29T07:19:53;16.07;;;11.15;;
26516;SDS011;14190;51.342;6.338;2023-03-29T07:22:22;10.38;;;5.78;;
26516;SDS011;14190;51.342;6.338;2023-03-29T07:24:51;12.13;;;5.28;;
26516;SDS011;14190;51.342;6.338;2023-03-29T07:27:19;11.25;;;5.80;;
26516;SDS011;14190;51.342;6.338;2023-03-29T07:29:48;7.95;;;5.12;;
26516;SDS011;14190;51.342;6.338;2023-03-29T07:32:15;10.48;;;5.10;;
26516;SDS011;14190;51.342;6.338;2023-03-29T07:34:45;9.48;;;5.55;;
26516;SDS011;14190;51.342;6.338;2023-03-29T07:37:18;9.85;;;5.22;;
26516;SDS011;14190;51.342;6.338;2023-03-29T07:39:46;13.50;;;5.37;;
26516;SDS011;14190;51.342;6.338;2023-03-29T07:42:27;7.95;;;5.25;;
26516;SDS011;14190;51.342;6.338;2023-03-29T07:44:54;11.93;;;5.45;;
26516;SDS011;14190;51.342;6.338;2023-03-29T07:47:25;9.83;;;5.55;;
26516;SDS011;14190;51.342;6.338;2023-03-29T07:49:53;12.78;;;5.95;;
26516;SDS011;14190;51.342;6.338;2023-03-29T07:52:23;8.05;;;5.30;;
26516;SDS011;14190;51.342;6.338;2023-03-29T07:54:53;12.70;;;4.90;;
26516;SDS011;14190;51.342;6.338;2023-03-29T07:57:22;14.25;;;6.03;;
26516;SDS011;14190;51.342;6.338;2023-03-29T07:59:52;13.70;;;6.35;;
26516;SDS011;14190;51.342;6.338;2023-03-29T08:02:21;13.13;;;5.30;;
26516;SDS011;14190;51.342;6.338;2023-03-29T08:04:51;12.63;;;5.87;;
26516;SDS011;14190;51.342;6.338;2023-03-29T08:07:36;13.08;;;5.85;;
26516;SDS011;14190;51.342;6.338;2023-03-29T08:10:16;11.03;;;5.92;;
26516;SDS011;14190;51.342;6.338;2023-03-29T08:13:05;11.63;;;5.78;;
26516;SDS011;14190;51.342;6.338;2023-03-29T08:15:47;11.33;;;5.80;;
26516;SDS011;14190;51.342;6.338;2023-03-29T08:18:23;12.07;;;5.37;;
26516;SDS011;14190;51.342;6.338;2023-03-29T08:20:50;13.10;;;5.80;;
26516;SDS011;14190;51.342;6.338;2023-03-29T08:23:18;8.45;;;4.92;;
26516;SDS011;14190;51.342;6.338;2023-03-29T08:25:53;14.05;;;5.03;;
26516;SDS011;14190;51.342;6.338;2023-03-29T08:28:21;8.25;;;4.62;;
26516;SDS011;14190;51.342;6.338;2023-03-29T08:30:50;16.25;;;5.25;;
26516;SDS011;14190;51.342;6.338;2023-03-29T08:33:18;8.15;;;4.20;;
26516;SDS011;14190;51.342;6.338;2023-03-29T08:35:47;11.73;;;5.25;;
26516;SDS011;14190;51.342;6.338;2023-03-29T08:38:16;14.53;;;5.37;;
26516;SDS011;14190;51.342;6.338;2023-03-29T08:40:46;12.07;;;4.17;;
26516;SDS011;14190;51.342;6.338;2023-03-29T08:43:27;11.50;;;4.05;;
26516;SDS011;14190;51.342;6.338;2023-03-29T08:48:43;11.25;;;5.08;;
26516;SDS011;14190;51.342;6.338;2023-03-29T08:51:16;12.80;;;4.85;;
26516;SDS011;14190;51.342;6.338;2023-03-29T08:53:45;7.92;;;4.33;;
26516;SDS011;14190;51.342;6.338;2023-03-29T08:56:17;10.23;;;5.10;;
26516;SDS011;14190;51.342;6.338;2023-03-29T08:59:01;13.43;;;4.25;;
26516;SDS011;14190;51.342;6.338;2023-03-29T09:01:32;10.97;;;4.03;;
26516;SDS011;14190;51.342;6.338;2023-03-29T09:04:02;12.00;;;4.62;;
26516;SDS011;14190;51.342;6.338;2023-03-29T09:06:31;13.40;;;3.15;;
26516;SDS011;14190;51.342;6.338;2023-03-29T09:09:00;11.05;;;4.37;;
26516;SDS011;14190;51.342;6.338;2023-03-29T09:17:15;10.15;;;4.28;;
26516;SDS011;14190;51.342;6.338;2023-03-29T09:19:44;7.78;;;4.58;;
26516;SDS011;14190;51.342;6.338;2023-03-29T09:27:33;8.28;;;4.45;;
26516;SDS011;14190;51.342;6.338;2023-03-29T09:38:04;7.55;;;5.15;;
26516;SDS011;14190;51.342;6.338;2023-03-29T09:40:40;17.65;;;5.72;;
26516;SDS011;14190;51.342;6.338;2023-03-29T09:43:11;7.83;;;5.62;;
26516;SDS011;14190;51.342;6.338;2023-03-29T09:45:40;9.23;;;4.92;;
26516;SDS011;14190;51.342;6.338;2023-03-29T09:48:10;9.63;;;4.58;;
26516;SDS011;14190;51.342;6.338;2023-03-29T09:53:07;9.18;;;4.10;;
26516;SDS011;14190;51.342;6.338;2023-03-29T09:55:36;8.13;;;4.03;;
26516;SDS011;14190;51.342;6.338;2023-03-29T09:58:23;8.80;;;4.42;;
26516;SDS011;14190;51.342;6.338;2023-03-29T10:00:55;9.85;;;5.45;;
26516;SDS011;14190;51.342;6.338;2023-03-29T10:03:26;7.47;;;6.08;;
26516;SDS011;14190;51.342;6.338;2023-03-29T10:05:58;8.53;;;4.97;;
26516;SDS011;14190;51.342;6.338;2023-03-29T10:08:29;9.93;;;4.70;;
26516;SDS011;14190;51.342;6.338;2023-03-29T10:10:57;12.13;;;4.60;;
26516;SDS011;14190;51.342;6.338;2023-03-29T10:13:29;17.55;;;7.12;;
26516;SDS011;14190;51.342;6.338;2023-03-29T10:16:04;12.80;;;5.85;;
26516;SDS011;14190;51.342;6.338;2023-03-29T10:18:37;6.87;;;4.15;;
26516;SDS011;14190;51.342;6.338;2023-03-29T10:21:02;6.80;;;4.03;;
26516;SDS011;14190;51.342;6.338;2023-03-29T10:23:31;9.63;;;4.40;;
26516;SDS011;14190;51.342;6.338;2023-03-29T10:25:59;9.50;;;4.25;;
26516;SDS011;14190;51.342;6.338;2023-03-29T10:28:27;10.90;;;4.10;;
26516;SDS011;14190;51.342;6.338;2023-03-29T10:30:56;14.55;;;5.83;;
26516;SDS011;14190;51.342;6.338;2023-03-29T10:33:26;13.05;;;4.50;;
26516;SDS011;14190;51.342;6.338;2023-03-29T10:35:53;8.05;;;4.33;;
26516;SDS011;14190;51.342;6.338;2023-03-29T10:38:23;10.68;;;5.50;;
26516;SDS011;14190;51.342;6.338;2023-03-29T10:40:53;11.15;;;4.92;;
26516;SDS011;14190;51.342;6.338;2023-03-29T10:43:28;11.65;;;4.67;;
26516;SDS011;14190;51.342;6.338;2023-03-29T10:46:04;13.28;;;6.45;;
26516;SDS011;14190;51.342;6.338;2023-03-29T10:48:28;17.47;;;6.97;;
26516;SDS011;14190;51.342;6.338;2023-03-29T10:50:59;10.03;;;5.75;;
26516;SDS011;14190;51.342;6.338;2023-03-29T10:53:28;11.57;;;5.33;;
26516;SDS011;14190;51.342;6.338;2023-03-29T10:55:59;9.53;;;4.65;;
26516;SDS011;14190;51.342;6.338;2023-03-29T10:58:34;8.80;;;4.92;;
26516;SDS011;14190;51.342;6.338;2023-03-29T11:00:59;11.18;;;4.67;;
26516;SDS011;14190;51.342;6.338;2023-03-29T11:03:32;7.87;;;4.42;;
26516;SDS011;14190;51.342;6.338;2023-03-29T11:06:18;10.85;;;4.92;;
26516;SDS011;14190;51.342;6.338;2023-03-29T11:08:59;7.25;;;5.42;;
26516;SDS011;14190;51.342;6.338;2023-03-29T11:14:06;14.47;;;5.63;;
26516;SDS011;14190;51.342;6.338;2023-03-29T11:16:39;14.13;;;6.37;;
26516;SDS011;14190;51.342;6.338;2023-03-29T11:19:17;11.43;;;5.25;;
26516;SDS011;14190;51.342;6.338;2023-03-29T11:27:00;9.85;;;5.15;;
26516;SDS011;14190;51.342;6.338;2023-03-29T11:29:27;7.80;;;5.12;;
26516;SDS011;14190;51.342;6.338;2023-03-29T11:34:50;9.48;;;4.37;;
26516;SDS011;14190;51.342;6.338;2023-03-29T11:37:21;10.82;;;5.28;;
26516;SDS011;14190;51.342;6.338;2023-03-29T11:39:55;13.35;;;5.33;;
26516;SDS011;14190;51.342;6.338;2023-03-29T11:42:20;9.50;;;5.60;;
26516;SDS011;14190;51.342;6.338;2023-03-29T11:44:51;10.80;;;4.92;;
26516;SDS011;14190;51.342;6.338;2023-03-29T11:47:19;11.53;;;5.80;;
26516;SDS011;14190;51.342;6.338;2023-03-29T11:49:53;10.78;;;7.92;;
26516;SDS011;14190;51.342;6.338;2023-03-29T11:54:59;12.23;;;5.62;;
26516;SDS011;14190;51.342;6.338;2023-03-29T12:02:43;11.20;;;4.78;;
26516;SDS011;14190;51.342;6.338;2023-03-29T12:05:19;17.82;;;5.17;;
26516;SDS011;14190;51.342;6.338;2023-03-29T12:07:52;11.43;;;5.12;;
26516;SDS011;14190;51.342;6.338;2023-03-29T12:10:19;9.80;;;5.53;;
26516;SDS011;14190;51.342;6.338;2023-03-29T12:13:02;9.60;;;4.78;;
26516;SDS011;14190;51.342;6.338;2023-03-29T12:15:37;11.33;;;6.17;;
26516;SDS011;14190;51.342;6.338;2023-03-29T12:20:45;10.18;;;4.87;;
26516;SDS011;14190;51.342;6.338;2023-03-29T12:23:16;19.70;;;6.28;;
26516;SDS011;14190;51.342;6.338;2023-03-29T12:25:59;12.95;;;5.78;;
26516;SDS011;14190;51.342;6.338;2023-03-29T12:28:29;10.98;;;5.22;;
26516;SDS011;14190;51.342;6.338;2023-03-29T12:33:42;8.80;;;4.78;;
26516;SDS011;14190;51.342;6.338;2023-03-29T12:39:03;10.23;;;4.25;;
26516;SDS011;14190;51.342;6.338;2023-03-29T12:41:49;10.20;;;5.78;;
26516;SDS011;14190;51.342;6.338;2023-03-29T12:44:25;12.05;;;6.00;;
26516;SDS011;14190;51.342;6.338;2023-03-29T12:46:58;10.58;;;6.25;;
26516;SDS011;14190;51.342;6.338;2023-03-29T12:49:27;8.90;;;5.53;;
26516;SDS011;14190;51.342;6.338;2023-03-29T12:51:55;9.98;;;5.67;;
26516;SDS011;14190;51.342;6.338;2023-03-29T12:54:24;8.38;;;5.30;;
26516;SDS011;14190;51.342;6.338;2023-03-29T12:56:53;9.68;;;6.03;;
26516;SDS011;14190;51.342;6.338;2023-03-29T12:59:25;9.70;;;4.62;;
26516;SDS011;14190;51.342;6.338;2023-03-29T13:02:01;11.08;;;5.00;;
26516;SDS011;14190;51.342;6.338;2023-03-29T13:04:35;11.15;;;5.62;;
26516;SDS011;14190;51.342;6.338;2023-03-29T13:07:03;10.80;;;4.97;;
26516;SDS011;14190;51.342;6.338;2023-03-29T13:09:33;8.33;;;4.33;;
26516;SDS011;14190;51.342;6.338;2023-03-29T13:12:11;8.88;;;5.58;;
26516;SDS011;14190;51.342;6.338;2023-03-29T13:14:33;6.35;;;3.95;;
26516;SDS011;14190;51.342;6.338;2023-03-29T13:17:01;9.48;;;5.15;;
26516;SDS011;14190;51.342;6.338;2023-03-29T13:22:35;7.75;;;5.15;;
26516;SDS011;14190;51.342;6.338;2023-03-29T13:27:40;9.60;;;4.65;;
26516;SDS011;14190;51.342;6.338;2023-03-29T13:30:12;13.83;;;5.40;;
26516;SDS011;14190;51.342;6.338;2023-03-29T13:35:33;10.78;;;4.58;;
26516;SDS011;14190;51.342;6.338;2023-03-29T13:38:02;8.13;;;3.62;;
26516;SDS011;14190;51.342;6.338;2023-03-29T13:45:39;6.20;;;4.17;;
26516;SDS011;14190;51.342;6.338;2023-03-29T13:50:59;7.95;;;4.42;;
26516;SDS011;14190;51.342;6.338;2023-03-29T13:53:31;8.50;;;3.75;;
26516;SDS011;14190;51.342;6.338;2023-03-29T13:55:59;5.47;;;3.10;;
26516;SDS011;14190;51.342;6.338;2023-03-29T13:58:34;4.97;;;2.52;;
26516;SDS011;14190;51.342;6.338;2023-03-29T14:03:31;4.58;;;2.52;;
26516;SDS011;14190;51.342;6.338;2023-03-29T14:06:00;5.03;;;2.80;;
26516;SDS011;14190;51.342;6.338;2023-03-29T14:08:30;5.30;;;2.90;;
26516;SDS011;14190;51.342;6.338;2023-03-29T14:10:59;4.92;;;2.83;;
26516;SDS011;14190;51.342;6.338;2023-03-29T14:13:27;4.87;;;2.70;;
26516;SDS011;14190;51.342;6.338;2023-03-29T14:16:01;4.47;;;3.10;;
26516;SDS011;14190;51.342;6.338;2023-03-29T14:18:25;7.78;;;6.08;;
26516;SDS011;14190;51.342;6.338;2023-03-29T14:20:54;7.87;;;3.45;;
26516;SDS011;14190;51.342;6.338;2023-03-29T14:23:27;11.75;;;5.05;;
26516;SDS011;14190;51.342;6.338;2023-03-29T14:25:51;9.80;;;4.40;;
26516;SDS011;14190;51.342;6.338;2023-03-29T14:28:23;4.65;;;2.85;;
26516;SDS011;14190;51.342;6.338;2023-03-29T14:30:51;5.17;;;2.77;;
26516;SDS011;14190;51.342;6.338;2023-03-29T14:35:54;4.62;;;3.00;;
26516;SDS011;14190;51.342;6.338;2023-03-29T14:38:22;6.60;;;3.10;;
26516;SDS011;14190;51.342;6.338;2023-03-29T14:40:50;6.03;;;3.90;;
26516;SDS011;14190;51.342;6.338;2023-03-29T14:43:19;7.47;;;3.72;;
26516;SDS011;14190;51.342;6.338;2023-03-29T14:45:48;3.25;;;2.77;;
26516;SDS011;14190;51.342;6.338;2023-03-29T14:48:15;3.33;;;2.22;;
26516;SDS011;14190;51.342;6.338;2023-03-29T14:50:44;3.77;;;2.40;;
26516;SDS011;14190;51.342;6.338;2023-03-29T14:53:16;11.08;;;3.08;;
26516;SDS011;14190;51.342;6.338;2023-03-29T14:55:46;4.00;;;2.67;;
26516;SDS011;14190;51.342;6.338;2023-03-29T15:00:47;5.53;;;2.80;;
26516;SDS011;14190;51.342;6.338;2023-03-29T15:03:15;7.12;;;3.05;;
26516;SDS011;14190;51.342;6.338;2023-03-29T15:05:46;8.93;;;3.58;;
26516;SDS011;14190;51.342;6.338;2023-03-29T15:08:13;5.58;;;2.90;;
26516;SDS011;14190;51.342;6.338;2023-03-29T15:10:42;6.22;;;2.65;;
26516;SDS011;14190;51.342;6.338;2023-03-29T15:13:14;5.30;;;3.35;;
26516;SDS011;14190;51.342;6.338;2023-03-29T15:15:41;13.28;;;3.45;;
26516;SDS011;14190;51.342;6.338;2023-03-29T15:18:10;9.30;;;3.20;;
26516;SDS011;14190;51.342;6.338;2023-03-29T15:20:39;7.33;;;2.98;;
26516;SDS011;14190;51.342;6.338;2023-03-29T15:25:46;8.93;;;3.72;;
26516;SDS011;14190;51.342;6.338;2023-03-29T15:31:11;11.10;;;3.05;;
26516;SDS011;14190;51.342;6.338;2023-03-29T15:33:44;6.35;;;3.47;;
26516;SDS011;14190;51.342;6.338;2023-03-29T15:36:09;7.20;;;2.95;;
26516;SDS011;14190;51.342;6.338;2023-03-29T15:38:37;4.45;;;2.35;;
26516;SDS011;14190;51.342;6.338;2023-03-29T15:41:05;8.83;;;3.87;;
26516;SDS011;14190;51.342;6.338;2023-03-29T15:43:33;7.17;;;3.05;;
26516;SDS011;14190;51.342;6.338;2023-03-29T15:46:01;5.50;;;2.98;;
26516;SDS011;14190;51.342;6.338;2023-03-29T15:48:29;8.23;;;2.98;;
26516;SDS011;14190;51.342;6.338;2023-03-29T15:50:58;5.03;;;3.02;;
26516;SDS011;14190;51.342;6.338;2023-03-29T15:53:26;8.78;;;2.75;;
26516;SDS011;14190;51.342;6.338;2023-03-29T15:55:54;3.40;;;2.60;;
26516;SDS011;14190;51.342;6.338;2023-03-29T15:58:23;5.67;;;2.80;;
26516;SDS011;14190;51.342;6.338;2023-03-29T16:00:56;4.60;;;2.83;;
26516;SDS011;14190;51.342;6.338;2023-03-29T16:03:21;8.10;;;3.35;;
26516;SDS011;14190;51.342;6.338;2023-03-29T16:05:50;6.28;;;3.42;;
26516;SDS011;14190;51.342;6.338;2023-03-29T16:08:19;5.53;;;3.20;;
26516;SDS011;14190;51.342;6.338;2023-03-29T16:10:46;5.67;;;2.95;;
26516;SDS011;14190;51.342;6.338;2023-03-29T16:13:14;8.35;;;4.30;;
26516;SDS011;14190;51.342;6.338;2023-03-29T16:15:42;8.68;;;3.60;;
26516;SDS011;14190;51.342;6.338;2023-03-29T16:18:09;9.43;;;3.12;;
26516;SDS011;14190;51.342;6.338;2023-03-29T16:20:36;8.05;;;2.80;;
26516;SDS011;14190;51.342;6.338;2023-03-29T16:23:06;6.95;;;2.65;;
26516;SDS011;14190;51.342;6.338;2023-03-29T16:25:37;8.00;;;3.05;;
26516;SDS011;14190;51.342;6.338;2023-03-29T16:28:06;5.85;;;3.08;;
26516;SDS011;14190;51.342;6.338;2023-03-29T16:30:34;7.70;;;3.22;;